Time;durP1;ratioP1;P1;durP2;ratioP2;P2;SDS_P1;SDS_P2;PMS_P1;PMS_P2;Temp;Humidity;BMP_temperature;BMP_pressure;BME280_temperature;BME280_humidity;BME280_pressure;Samples;Min_cycle;Max_cycle;Signal;HPM_P1;HPM_P2
2023/04/13 00:00:47;;;;;;;;;;;12.20;93.00;;;11.16;59.50;97586.59;5043431;27;123947;-84
2023/04/13 00:03:15;;;;;;;;;;;10.90;92.40;;;11.10;59.40;97582.44;5017469;28;113883;-84
2023/04/13 00:05:43;;;;;;;;;;;10.80;92.20;;;11.07;59.20;97589.47;5029727;28;114556;-83
2023/04/13 00:08:09;;;;;;;;;;;10.80;92.20;;;11.02;59.02;97587.72;5014417;28;124447;-84
2023/04/13 00:10:35;;;;;;;;;;;10.70;92.10;;;10.96;58.81;97594.66;5015987;28;124437;-85
2023/04/13 00:13:05;;;;;;;;;;;10.70;92.00;;;10.93;59.16;97598.06;5015762;28;115587;-83
2023/04/13 00:15:33;;;;;;;;;;;10.70;92.10;;;10.90;59.31;97598.75;4998415;28;113402;-84
2023/04/13 00:18:00;;;;;;;;;;;10.60;92.00;;;10.88;58.88;97614.91;5006260;28;124098;-79
2023/04/13 00:20:26;;;;;;;;;;;10.60;92.00;;;10.85;59.27;97621.09;5004292;28;124125;-84
2023/04/13 00:22:53;;;;;;;;;;;10.60;91.90;;;10.80;59.07;97633.19;4992676;28;114317;-79
2023/04/13 00:25:19;;;;;;;;;;;10.60;91.90;;;10.75;59.51;97621.56;4990451;28;113954;-79
2023/04/13 00:27:45;;;;;;;;;;;10.50;91.90;;;10.72;59.03;97623.06;5010617;28;123891;-80
2023/04/13 00:30:13;;;;;;;;;;;10.50;91.90;;;10.68;59.00;97618.53;5007045;28;123239;-79
2023/04/13 00:32:44;;;;;;;;;;;10.40;91.90;;;10.64;58.89;97614.84;4994009;28;115735;-78
2023/04/13 00:35:14;;;;;;;;;;;10.30;91.80;;;10.55;58.89;97618.50;5013952;27;114478;-79
2023/04/13 00:37:43;;;;;;;;;;;9.20;91.80;;;10.50;58.85;97610.44;5010748;28;123569;-79
2023/04/13 00:40:10;;;;;;;;;;;10.30;91.80;;;10.47;59.34;97611.13;5009145;28;124427;-79
2023/04/13 00:42:36;;;;;;;;;;;10.20;91.70;;;10.48;59.30;97606.44;4996721;28;114929;-81
2023/04/13 00:45:03;;;;;;;;;;;10.20;91.80;;;10.46;58.86;97604.00;4999199;28;113515;-80
2023/04/13 00:47:33;;;;;;;;;;;10.20;91.80;;;10.49;58.73;97603.31;5000572;28;124033;-81
2023/04/13 00:50:00;;;;;;;;;;;10.20;91.80;;;10.49;58.60;97600.53;5007499;28;124094;-79
2023/04/13 00:52:27;;;;;;;;;;;10.20;91.80;;;10.50;58.55;97604.09;5008098;28;114075;-80
2023/04/13 00:54:55;;;;;;;;;;;10.50;91.90;;;10.48;58.71;97612.75;4994775;28;113824;-79
2023/04/13 00:57:24;;;;;;;;;;;10.20;91.70;;;10.46;58.67;97608.72;4993832;28;122994;-81
2023/04/13 00:59:51;;;;;;;;;;;10.20;91.60;;;10.44;58.87;97588.91;4997824;28;123841;-80
2023/04/13 01:02:23;;;;;;;;;;;10.20;91.60;;;10.43;58.90;97593.63;5036671;27;114599;-80
2023/04/13 01:04:50;;;;;;;;;;;10.20;91.60;;;10.41;58.52;97595.94;4988548;28;113775;-81
2023/04/13 01:07:52;;;;;;;;;;;10.20;91.60;;;10.39;58.31;97604.53;5027033;27;124735;-83
2023/04/13 01:10:24;;;;;;;;;;;10.20;91.50;;;10.39;58.41;97612.00;4997197;28;124180;-80
2023/04/13 01:13:06;;;;;;;;;;;10.10;91.40;;;10.38;58.52;97607.66;5000571;28;113842;-81
2023/04/13 01:15:36;;;;;;;;;;;10.10;91.40;;;10.37;58.38;97620.66;4995159;28;113704;-80
2023/04/13 01:18:07;;;;;;;;;;;10.10;91.40;;;10.35;58.08;97619.38;5023380;27;124819;-79
2023/04/13 01:20:36;;;;;;;;;;;10.10;91.40;;;10.34;58.25;97624.09;4996811;28;123809;-80
2023/04/13 01:23:30;;;;;;;;;;;10.10;91.30;;;10.34;57.86;97615.00;4995764;28;115452;-80
2023/04/13 01:26:00;;;;;;;;;;;10.10;91.30;;;10.35;58.14;97609.13;4991462;28;114805;-81
2023/04/13 01:28:27;;;;;;;;;;;10.10;91.20;;;10.35;58.06;97600.84;5032754;27;124387;-82
2023/04/13 01:30:56;;;;;;;;;;;10.10;91.20;;;10.35;57.97;97602.81;5004393;28;124336;-83
2023/04/13 01:33:24;;;;;;;;;;;10.10;91.10;;;10.35;57.54;97602.81;5033674;27;114426;-83
2023/04/13 01:35:50;;;;;;;;;;;10.10;91.00;;;10.34;57.65;97606.72;5002320;28;113812;-81
2023/04/13 01:38:23;;;;;;;;;;;10.10;91.00;;;10.34;57.25;97606.72;5006014;28;124550;-85
2023/04/13 01:40:49;;;;;;;;;;;10.10;90.90;;;10.30;57.42;97606.59;5023044;28;125681;-81
2023/04/13 01:43:15;;;;;;;;;;;10.10;90.80;;;10.33;57.19;97605.09;5009495;28;114449;-82
2023/04/13 01:45:50;;;;;;;;;;;10.00;90.70;;;10.32;57.45;97595.22;4993489;28;113542;-81
2023/04/13 01:48:26;;;;;;;;;;;10.00;90.80;;;10.33;56.77;97588.53;5008149;28;124161;-81
2023/04/13 01:50:55;;;;;;;;;;;10.10;90.80;;;10.34;56.76;97595.66;5032812;27;124020;-82
2023/04/13 01:53:28;;;;;;;;;;;10.10;90.70;;;10.34;56.92;97590.97;5009114;28;115204;-81
2023/04/13 01:55:54;;;;;;;;;;;10.10;90.60;;;10.34;57.01;97584.63;5006786;28;113009;-81
2023/04/13 01:58:22;;;;;;;;;;;10.10;90.50;;;10.31;56.63;97588.88;5008591;28;124234;-82
2023/04/13 02:00:48;;;;;;;;;;;10.00;90.40;;;10.28;56.72;97583.22;5035892;27;124507;-81
2023/04/13 02:03:15;;;;;;;;;;;10.00;90.30;;;10.23;56.49;97583.41;5029751;27;114227;-81
2023/04/13 02:05:41;;;;;;;;;;;10.00;90.30;;;10.23;56.48;97583.41;5037425;27;113756;-83
2023/04/13 02:08:08;;;;;;;;;;;10.00;90.30;;;10.25;56.71;97586.66;5004351;28;124532;-81
2023/04/13 02:10:35;;;;;;;;;;;10.00;90.30;;;10.28;56.91;97591.50;5006431;28;123958;-82
2023/04/13 02:13:06;;;;;;;;;;;10.00;90.40;;;10.29;56.63;97590.34;5007150;28;115860;-81
2023/04/13 02:15:36;;;;;;;;;;;10.00;90.40;;;10.30;56.93;97601.06;5008809;28;114755;-83
2023/04/13 02:18:04;;;;;;;;;;;10.00;90.40;;;10.29;56.40;97598.63;5007911;28;124323;-84
2023/04/13 02:20:39;;;;;;;;;;;10.00;90.40;;;10.31;56.63;97596.34;5008036;28;124101;-82
2023/04/13 02:23:07;;;;;;;;;;;10.10;90.40;;;10.32;57.09;97606.25;5007588;28;114918;-80
2023/04/13 02:25:34;;;;;;;;;;;10.00;90.40;;;10.31;56.90;97607.38;5008432;28;113983;-85
2023/04/13 02:28:01;;;;;;;;;;;10.00;90.40;;;10.33;56.73;97605.09;5008335;28;124882;-83
2023/04/13 02:30:27;;;;;;;;;;;10.10;90.50;;;10.33;57.09;97594.84;4993223;28;123248;-81
2023/04/13 02:32:54;;;;;;;;;;;10.00;90.40;;;10.35;57.07;97606.38;5009784;28;113385;-81
2023/04/13 02:35:24;;;;;;;;;;;10.10;90.60;;;10.37;56.94;97606.06;5023241;27;113408;-80
2023/04/13 02:37:50;;;;;;;;;;;10.10;90.50;;;10.36;56.67;97605.22;4994042;28;124570;-83
2023/04/13 02:40:18;;;;;;;;;;;10.10;90.80;;;10.37;56.78;97606.06;5007342;28;123836;-81
2023/04/13 02:42:44;;;;;;;;;;;10.10;90.40;;;10.40;56.81;97605.38;5009080;28;114478;-81
2023/04/13 02:45:16;;;;;;;;;;;10.00;90.30;;;10.40;56.61;97599.84;5008258;28;113758;-84
2023/04/13 02:47:43;;;;;;;;;;;10.10;90.60;;;10.38;56.56;97605.69;5007562;28;124539;-81
2023/04/13 02:50:11;;;;;;;;;;;10.10;90.20;;;10.38;55.97;97596.59;5000108;28;124683;-82
2023/04/13 02:52:37;;;;;;;;;;;10.10;90.20;;;10.37;55.96;97603.28;4994090;28;114532;-82
2023/04/13 02:55:05;;;;;;;;;;;10.10;90.10;;;10.37;55.97;97595.00;4988675;28;114065;-81
2023/04/13 02:57:33;;;;;;;;;;;10.10;90.10;;;10.36;55.87;97593.38;4994787;28;124331;-82
2023/04/13 02:59:59;;;;;;;;;;;10.10;90.00;;;10.35;56.29;97598.09;5006999;28;123910;-82
2023/04/13 03:02:28;;;;;;;;;;;10.10;89.90;;;10.34;55.72;97599.25;5014021;28;115427;-81
2023/04/13 03:04:55;;;;;;;;;;;10.10;89.90;;;10.33;55.83;97596.81;5003571;28;114681;-83
2023/04/13 03:07:24;;;;;;;;;;;10.00;89.70;;;10.31;56.06;97602.66;5025827;27;123624;-83
2023/04/13 03:09:51;;;;;;;;;;;10.00;89.70;;;10.28;56.15;97602.56;5007802;28;124660;-83
2023/04/13 03:12:19;;;;;;;;;;;10.00;89.70;;;10.26;55.71;97615.84;4990855;28;113716;-82
2023/04/13 03:14:45;;;;;;;;;;;10.00;89.50;;;10.23;55.65;97613.78;4999952;28;113368;-81
2023/04/13 03:17:11;;;;;;;;;;;9.90;90.10;;;10.17;55.99;97613.97;5009175;27;123441;-81
2023/04/13 03:19:38;;;;;;;;;;;10.00;89.60;;;10.17;56.23;97608.47;5005670;28;123241;-81
2023/04/13 03:22:04;;;;;;;;;;;9.90;90.20;;;10.17;55.63;97622.25;5005855;28;114526;-80
2023/04/13 03:24:31;;;;;;;;;;;9.90;90.20;;;10.12;55.82;97616.94;5007810;28;113695;-80
2023/04/13 03:26:57;;;;;;;;;;;10.10;89.60;;;10.09;56.09;97611.31;5006000;28;124470;-82
2023/04/13 03:29:23;;;;;;;;;;;9.80;90.10;;;10.05;55.75;97624.97;5035555;27;123801;-81
2023/04/13 03:31:50;;;;;;;;;;;9.80;90.20;;;9.97;55.99;97625.88;5005454;28;115300;-80
2023/04/13 03:34:17;;;;;;;;;;;9.70;90.20;;;9.93;56.42;97630.44;5007863;28;113710;-80
2023/04/13 03:36:43;;;;;;;;;;;11.40;90.50;;;9.90;56.35;97615.34;5026061;27;123999;-80
2023/04/13 03:39:10;;;;;;;;;;;9.70;90.20;;;9.90;56.27;97625.59;5009061;28;124700;-80
2023/04/13 03:41:37;;;;;;;;;;;9.70;90.30;;;9.94;56.63;97626.53;5010970;28;114260;-82
2023/04/13 03:44:03;;;;;;;;;;;9.70;90.40;;;9.92;56.50;97632.38;5013035;28;113260;-80
2023/04/13 03:46:36;;;;;;;;;;;9.70;90.30;;;9.92;56.10;97634.34;4996597;28;124142;-83
2023/04/13 03:49:07;;;;;;;;;;;9.70;90.30;;;9.90;56.57;97629.16;5001908;28;124104;-80
2023/04/13 03:51:34;;;;;;;;;;;9.60;90.30;;;9.90;56.00;97642.16;5010152;28;115037;-80
2023/04/13 03:54:00;;;;;;;;;;;9.60;90.30;;;9.89;56.22;97654.34;5010881;28;114177;-80
2023/04/13 03:56:27;;;;;;;;;;;9.70;90.30;;;9.86;56.17;97650.28;5010850;28;124245;-83
2023/04/13 03:58:53;;;;;;;;;;;9.60;90.20;;;9.82;56.35;97662.31;5025718;28;123957;-80
2023/04/13 04:01:20;;;;;;;;;;;9.50;90.20;;;9.78;56.32;97655.84;5036834;27;114355;-80
2023/04/13 04:03:46;;;;;;;;;;;9.60;90.30;;;9.74;56.16;97658.47;5011804;28;112877;-80
2023/04/13 04:06:13;;;;;;;;;;;9.50;90.20;;;9.72;56.72;97669.88;5019375;28;123807;-82
2023/04/13 04:08:39;;;;;;;;;;;9.50;90.30;;;9.72;56.25;97664.34;5013658;28;123009;-82
2023/04/13 04:11:08;;;;;;;;;;;9.40;90.20;;;9.73;56.36;97665.94;5015607;28;113462;-83
2023/04/13 04:13:34;;;;;;;;;;;9.40;90.20;;;9.73;56.47;97665.94;5011408;28;113841;-80
2023/04/13 04:16:02;;;;;;;;;;;9.40;90.20;;;9.74;56.43;97667.56;5012507;28;123265;-84
2023/04/13 04:18:30;;;;;;;;;;;9.40;90.30;;;9.76;56.21;97671.94;5010717;28;124050;-82
2023/04/13 04:20:56;;;;;;;;;;;9.50;90.30;;;9.76;56.22;97670.00;5010389;28;114615;-80
2023/04/13 04:23:26;;;;;;;;;;;9.50;90.20;;;9.75;56.25;97679.41;5011822;28;112844;-81
2023/04/13 04:25:53;;;;;;;;;;;9.50;90.10;;;9.73;55.96;97668.72;5010823;28;124746;-86
2023/04/13 04:28:20;;;;;;;;;;;9.50;90.10;;;9.73;55.85;97657.69;5009829;28;123888;-80
2023/04/13 04:30:53;;;;;;;;;;;9.50;90.10;;;9.74;55.91;97670.31;5010467;28;115017;-81
2023/04/13 04:33:22;;;;;;;;;;;9.50;90.10;;;9.77;55.70;97657.00;5010948;28;113355;-81
2023/04/13 04:35:50;;;;;;;;;;;9.40;90.10;;;9.76;55.54;97661.72;4999980;28;124313;-79
2023/04/13 04:38:17;;;;;;;;;;;9.40;90.00;;;9.74;55.58;97666.75;5007789;28;122881;-81
2023/04/13 04:40:44;;;;;;;;;;;10.40;89.90;;;9.72;56.13;97667.09;5013097;28;115354;-82
2023/04/13 04:43:13;;;;;;;;;;;9.40;90.00;;;9.68;55.71;97666.16;5010762;28;114575;-81
2023/04/13 04:45:42;;;;;;;;;;;9.40;89.90;;;9.66;55.69;97671.19;5011951;28;124265;-81
2023/04/13 04:48:10;;;;;;;;;;;9.40;89.80;;;9.65;55.48;97677.84;5030991;27;123791;-82
2023/04/13 04:50:36;;;;;;;;;;;9.30;89.70;;;9.61;55.50;97673.31;5008261;28;116791;-79
2023/04/13 04:53:06;;;;;;;;;;;9.40;89.50;;;9.59;55.19;97678.38;5013262;28;113118;-83
2023/04/13 04:55:32;;;;;;;;;;;9.30;89.30;;;9.54;55.37;97675.78;5009433;28;124159;-80
2023/04/13 04:57:58;;;;;;;;;;;9.30;89.20;;;9.52;55.25;97681.66;5010652;28;125677;-80
2023/04/13 05:00:25;;;;;;;;;;;10.70;89.50;;;9.49;55.26;97668.53;5006821;28;114071;-82
2023/04/13 05:02:51;;;;;;;;;;;9.20;89.00;;;9.46;55.08;97674.72;5010159;28;114269;-80
2023/04/13 05:05:18;;;;;;;;;;;9.20;88.90;;;9.47;54.92;97674.38;5039316;27;124951;-80
2023/04/13 05:07:44;;;;;;;;;;;9.20;88.80;;;9.43;54.76;97673.44;5008725;28;124220;-81
2023/04/13 05:10:11;;;;;;;;;;;9.20;88.60;;;9.41;54.87;97666.66;4996768;28;114377;-82
2023/04/13 05:12:37;;;;;;;;;;;9.20;88.60;;;9.38;54.80;97678.34;5027647;27;113226;-79
2023/04/13 05:15:04;;;;;;;;;;;9.20;88.60;;;9.41;54.69;97677.66;5001159;28;124350;-81
2023/04/13 05:17:30;;;;;;;;;;;9.10;88.50;;;9.41;54.59;97680.44;5009842;28;123708;-80
2023/04/13 05:19:56;;;;;;;;;;;9.10;88.50;;;9.41;54.95;97675.72;5009314;28;114602;-81
2023/04/13 05:22:23;;;;;;;;;;;9.10;88.60;;;9.41;54.62;97685.94;5010028;28;113749;-82
2023/04/13 05:24:49;;;;;;;;;;;9.10;88.60;;;9.40;54.93;97678.78;5010417;28;124262;-81
2023/04/13 05:27:18;;;;;;;;;;;9.10;88.50;;;9.40;54.57;97665.84;5008681;28;124080;-80
2023/04/13 05:29:45;;;;;;;;;;;9.10;88.50;;;9.42;54.91;97671.00;5005779;28;115587;-83
2023/04/13 05:32:11;;;;;;;;;;;9.10;88.50;;;9.40;54.55;97674.13;5010020;28;115550;-83
2023/04/13 05:34:37;;;;;;;;;;;9.10;88.40;;;9.43;54.65;97669.84;5010620;28;124278;-79
2023/04/13 05:37:04;;;;;;;;;;;9.20;88.40;;;9.45;54.51;97675.84;5005783;28;124328;-80
2023/04/13 05:39:33;;;;;;;;;;;9.10;88.10;;;9.45;54.08;97681.38;5011034;28;113717;-82
2023/04/13 05:42:00;;;;;;;;;;;9.10;88.10;;;9.47;54.24;97695.63;5010328;28;113839;-84
2023/04/13 05:44:26;;;;;;;;;;;9.10;87.90;;;9.46;54.41;97689.31;5012701;28;124754;-82
2023/04/13 05:46:53;;;;;;;;;;;9.10;87.70;;;9.45;54.16;97700.66;5038435;27;123980;-82
2023/04/13 05:49:19;;;;;;;;;;;9.10;87.70;;;9.47;54.40;97692.88;5002285;28;114935;-84
2023/04/13 05:51:46;;;;;;;;;;;9.10;87.70;;;9.48;54.22;97698.06;5010024;28;114336;-83
2023/04/13 05:54:13;;;;;;;;;;;9.10;87.70;;;9.51;54.25;97702.13;5009012;28;124775;-84
2023/04/13 05:56:39;;;;;;;;;;;9.30;87.80;;;9.53;53.87;97708.09;5008968;28;124271;-82
2023/04/13 05:59:06;;;;;;;;;;;9.20;87.60;;;9.55;53.90;97705.81;5026125;27;114475;-83
2023/04/13 06:01:35;;;;;;;;;;;9.20;87.50;;;9.56;53.54;97704.66;5022823;27;113875;-80
2023/04/13 06:04:02;;;;;;;;;;;7.70;86.10;;;9.62;53.76;97703.34;5023768;27;124231;-80
2023/04/13 06:06:29;;;;;;;;;;;9.30;87.50;;;9.66;53.69;97706.22;5000437;28;124498;-81
2023/04/13 06:08:56;;;;;;;;;;;9.30;87.10;;;9.69;53.28;97714.63;4999557;28;114500;-80
2023/04/13 06:11:24;;;;;;;;;;;9.30;87.10;;;9.70;53.15;97713.50;5018680;27;113962;-84
2023/04/13 06:13:51;;;;;;;;;;;9.40;87.00;;;9.73;53.07;97709.28;4996675;28;123852;-85
2023/04/13 06:16:17;;;;;;;;;;;9.40;86.60;;;9.77;53.15;97703.91;5022815;27;123094;-82
2023/04/13 06:18:46;;;;;;;;;;;9.40;86.60;;;9.80;52.60;97715.06;4988229;28;115773;-81
2023/04/13 06:21:12;;;;;;;;;;;9.50;86.50;;;9.83;52.88;97716.34;4993875;28;114602;-83
2023/04/13 06:23:38;;;;;;;;;;;9.50;86.30;;;9.86;52.62;97715.66;4992699;28;124147;-82
2023/04/13 06:26:05;;;;;;;;;;;9.50;86.20;;;9.86;52.54;97723.94;4992481;28;124310;-82
2023/04/13 06:28:35;;;;;;;;;;;9.50;85.90;;;9.86;52.37;97718.44;4999667;28;114515;-83
2023/04/13 06:31:01;;;;;;;;;;;9.50;85.70;;;9.84;52.37;97717.97;4993871;28;113784;-83
2023/04/13 06:33:27;;;;;;;;;;;9.50;85.60;;;9.89;52.68;97729.63;5012460;28;124112;-81
2023/04/13 06:35:53;;;;;;;;;;;9.50;85.30;;;9.93;52.08;97740.78;4998860;28;123971;-82
2023/04/13 06:38:19;;;;;;;;;;;9.50;85.30;;;9.98;51.84;97732.31;5009149;28;114531;-83
2023/04/13 06:40:48;;;;;;;;;;;9.90;85.50;;;10.03;51.80;97726.59;5007820;28;113629;-85
2023/04/13 06:43:14;;;;;;;;;;;9.60;85.10;;;10.08;51.79;97723.66;5029556;27;124139;-81
2023/04/13 06:45:41;;;;;;;;;;;9.70;85.20;;;10.11;51.73;97731.25;5009204;28;123780;-81
2023/04/13 06:48:10;;;;;;;;;;;9.70;84.90;;;10.16;51.69;97731.06;5007608;28;114446;-79
2023/04/13 06:50:36;;;;;;;;;;;9.70;84.80;;;10.23;51.64;97741.56;5003950;28;113578;-79
2023/04/13 06:53:02;;;;;;;;;;;10.60;84.50;;;10.28;51.49;97737.81;5009474;28;123402;-80
2023/04/13 06:55:29;;;;;;;;;;;9.80;84.60;;;10.33;51.15;97745.91;5006204;28;124571;-79
2023/04/13 06:57:57;;;;;;;;;;;9.90;84.10;;;10.35;50.69;97747.19;5007547;28;114396;-80
2023/04/13 07:00:23;;;;;;;;;;;9.90;84.20;;;10.38;50.63;97735.47;5007890;28;113563;-80
2023/04/13 07:02:50;;;;;;;;;;;9.90;84.00;;;10.37;50.78;97733.06;5004930;28;124247;-79
2023/04/13 07:05:17;;;;;;;;;;;9.90;83.70;;;10.34;50.20;97733.72;5025595;28;123112;-86
2023/04/13 07:07:43;;;;;;;;;;;9.90;83.40;;;10.33;50.86;97726.59;5007318;28;114840;-82
2023/04/13 07:10:09;;;;;;;;;;;9.90;83.60;;;10.33;50.82;97726.59;5008173;28;114780;-83
2023/04/13 07:12:35;;;;;;;;;;;9.90;83.50;;;10.34;50.50;97717.97;5007864;28;123771;-85
2023/04/13 07:15:02;;;;;;;;;;;9.90;83.50;;;10.37;50.49;97728.34;5008211;28;124558;-87
2023/04/13 07:17:30;;;;;;;;;;;10.00;82.20;;;10.36;50.54;97720.38;5011518;28;113950;-88
2023/04/13 07:19:57;;;;;;;;;;;9.90;83.10;;;10.37;50.51;97727.53;5010829;28;113714;-89
2023/04/13 07:22:25;;;;;;;;;;;10.00;82.20;;;10.37;50.51;97722.81;5012046;28;123597;-88
2023/04/13 07:24:52;;;;;;;;;;;10.50;82.60;;;10.38;50.87;97715.34;5009839;28;124089;-89
2023/04/13 07:27:18;;;;;;;;;;;10.00;82.10;;;10.37;50.14;97716.50;5010748;28;114364;-88
2023/04/13 07:29:44;;;;;;;;;;;10.10;82.10;;;10.42;50.43;97724.53;5010554;28;113770;-81
2023/04/13 07:32:11;;;;;;;;;;;10.00;81.90;;;10.44;50.36;97722.25;5009098;28;123274;-81
2023/04/13 07:34:37;;;;;;;;;;;10.10;82.00;;;10.48;50.14;97723.22;4998275;28;123976;-80
2023/04/13 07:37:03;;;;;;;;;;;10.10;81.80;;;10.53;50.18;97731.28;5006506;28;114658;-84
2023/04/13 07:39:33;;;;;;;;;;;10.20;82.50;;;10.58;50.47;97733.81;5011172;28;113408;-82
2023/04/13 07:42:00;;;;;;;;;;;10.20;81.60;;;10.58;49.90;97728.28;4997963;28;123986;-82
2023/04/13 07:44:26;;;;;;;;;;;10.20;81.50;;;10.61;49.86;97727.66;5006105;28;123659;-81
2023/04/13 07:46:56;;;;;;;;;;;10.20;81.30;;;10.60;50.35;97728.78;4998405;28;114501;-80
2023/04/13 07:49:22;;;;;;;;;;;10.20;81.20;;;10.62;49.94;97728.44;5026074;27;114333;-86
2023/04/13 07:51:51;;;;;;;;;;;10.30;81.40;;;10.67;50.28;97727.44;4999257;28;124441;-80
2023/04/13 07:54:18;;;;;;;;;;;10.30;81.50;;;10.68;49.77;97723.50;5016866;27;123007;-80
2023/04/13 07:56:44;;;;;;;;;;;10.30;81.40;;;10.74;49.78;97736.75;4990308;28;115340;-81
2023/04/13 07:59:12;;;;;;;;;;;10.30;81.50;;;10.76;50.55;97726.19;5001817;28;114612;-81
2023/04/13 08:01:39;;;;;;;;;;;10.40;81.80;;;10.74;50.45;97722.94;5006153;28;123588;-79
2023/04/13 08:04:05;;;;;;;;;;;10.40;82.10;;;10.72;50.37;97730.78;4990039;28;124130;-80
2023/04/13 08:06:37;;;;;;;;;;;10.40;82.10;;;10.71;50.49;97725.59;5003296;28;114657;-83
2023/04/13 08:09:03;;;;;;;;;;;10.40;82.20;;;10.76;50.88;97733.69;5007277;28;113862;-79
2023/04/13 08:11:29;;;;;;;;;;;10.40;82.40;;;10.79;50.65;97741.28;5009814;28;123119;-78
2023/04/13 08:13:56;;;;;;;;;;;10.40;82.20;;;10.83;50.64;97750.53;4999049;28;124092;-79
2023/04/13 08:16:22;;;;;;;;;;;10.40;82.20;;;10.85;50.48;97748.19;5007173;28;114464;-81
2023/04/13 08:18:48;;;;;;;;;;;10.50;82.10;;;10.90;50.55;97753.50;5008854;28;113660;-79
2023/04/13 08:21:14;;;;;;;;;;;10.50;82.00;;;10.94;50.54;97753.66;4997520;28;124826;-79
2023/04/13 08:23:43;;;;;;;;;;;10.60;82.10;;;11.01;50.20;97753.91;5009216;28;123715;-78
2023/04/13 08:26:17;;;;;;;;;;;10.60;82.00;;;11.05;50.38;97755.66;5024006;27;114786;-79
2023/04/13 08:28:44;;;;;;;;;;;10.60;81.90;;;11.09;49.94;97747.47;5019451;28;113682;-83
2023/04/13 08:31:10;;;;;;;;;;;10.70;81.80;;;11.15;49.57;97750.81;5023609;27;124776;-84
2023/04/13 08:33:37;;;;;;;;;;;10.80;81.80;;;11.23;49.74;97752.69;5016753;28;123496;-85
2023/04/13 08:36:06;;;;;;;;;;;10.80;81.60;;;11.31;49.72;97737.97;4994667;28;114474;-88
2023/04/13 08:38:33;;;;;;;;;;;10.80;81.60;;;11.38;49.74;97748.47;5005532;28;113791;-87
2023/04/13 08:41:04;;;;;;;;;;;10.90;81.50;;;11.45;48.75;97740.41;5004772;28;124448;-84
2023/04/13 08:43:32;;;;;;;;;;;10.90;80.70;;;11.47;48.65;97746.38;5002234;28;123883;-83
2023/04/13 08:45:58;;;;;;;;;;;11.00;81.40;;;11.46;48.58;97742.81;5019284;27;114621;-83
2023/04/13 08:48:24;;;;;;;;;;;11.00;80.10;;;11.46;48.18;97750.31;5012830;28;114205;-80
2023/04/13 08:50:55;;;;;;;;;;;11.00;79.80;;;11.42;47.93;97752.97;5001426;28;124543;-81
2023/04/13 08:53:22;;;;;;;;;;;10.90;79.00;;;11.36;48.10;97751.56;4995007;28;124018;-79
2023/04/13 08:55:49;;;;;;;;;;;11.00;79.50;;;11.35;48.57;97761.00;5006939;28;114824;-81
2023/04/13 08:58:25;;;;;;;;;;;11.00;79.70;;;11.35;48.53;97757.44;5023969;28;112978;-84
2023/04/13 09:00:51;;;;;;;;;;;11.00;79.90;;;11.34;48.68;97753.88;5012141;28;124068;-82
2023/04/13 09:03:24;;;;;;;;;;;11.00;80.00;;;11.39;48.93;97750.06;5028465;27;123707;-87
2023/04/13 09:05:58;;;;;;;;;;;11.00;80.00;;;11.42;48.57;97755.72;4996513;28;114737;-83
2023/04/13 09:08:25;;;;;;;;;;;11.00;80.00;;;11.42;48.77;97758.50;4992079;28;113677;-85
2023/04/13 09:10:54;;;;;;;;;;;11.00;80.20;;;11.42;49.15;97754.94;4993236;28;123987;-80
2023/04/13 09:13:20;;;;;;;;;;;11.00;80.30;;;11.47;48.65;97740.84;4996055;28;124007;-82
2023/04/13 09:15:47;;;;;;;;;;;11.00;80.00;;;11.53;48.64;97749.75;4993684;28;115315;-89
2023/04/13 09:18:14;;;;;;;;;;;11.10;80.10;;;11.59;48.73;97734.53;5003659;28;113501;-81
2023/04/13 09:20:41;;;;;;;;;;;11.20;80.10;;;11.66;48.71;97734.75;5002858;28;124238;-83
2023/04/13 09:23:14;;;;;;;;;;;11.20;80.00;;;11.73;48.51;97748.81;4997339;28;124388;-82
2023/04/13 09:25:41;;;;;;;;;;;11.30;79.90;;;11.75;48.14;97741.00;5027643;27;114444;-85
2023/04/13 09:28:20;;;;;;;;;;;11.30;79.60;;;11.81;47.84;97745.13;5005358;28;113831;-81
2023/04/13 09:30:46;;;;;;;;;;;11.30;79.50;;;11.87;48.21;97737.44;5006154;28;123953;-85
2023/04/13 09:33:15;;;;;;;;;;;11.40;79.30;;;11.93;47.51;97736.88;5020813;27;123939;-81
2023/04/13 09:35:42;;;;;;;;;;;11.50;79.00;;;11.96;47.76;97731.78;4999624;28;116569;-81
2023/04/13 09:38:10;;;;;;;;;;;11.50;78.80;;;11.98;47.40;97727.50;5007627;28;114640;-80
2023/04/13 09:40:47;;;;;;;;;;;11.60;78.40;;;11.99;46.77;97726.34;5037475;27;124754;-83
2023/04/13 09:43:15;;;;;;;;;;;11.60;77.80;;;11.96;46.15;97724.28;5010055;28;123496;-84
2023/04/13 09:45:45;;;;;;;;;;;11.60;76.40;;;11.96;45.59;97743.66;5033664;27;114439;-84
2023/04/13 09:48:21;;;;;;;;;;;11.60;75.30;;;11.94;44.96;97729.34;4994699;28;113898;-85
2023/04/13 09:51:04;;;;;;;;;;;11.50;74.20;;;11.91;44.09;97728.09;5009573;28;124038;-84
2023/04/13 09:53:41;;;;;;;;;;;11.50;73.60;;;11.90;43.28;97734.78;5002067;28;124111;-86
2023/04/13 09:56:11;;;;;;;;;;;11.50;72.40;;;11.89;43.73;97730.41;4991011;28;114632;-86
2023/04/13 09:58:44;;;;;;;;;;;11.50;72.30;;;11.91;43.57;97732.81;5029108;27;112784;-84
2023/04/13 10:01:11;;;;;;;;;;;11.50;72.30;;;11.90;43.51;97726.50;5002204;28;124125;-84
2023/04/13 10:03:37;;;;;;;;;;;11.50;71.80;;;11.89;43.12;97735.13;4991529;28;124070;-81
2023/04/13 10:06:06;;;;;;;;;;;11.50;71.40;;;11.85;43.35;97728.66;4997871;28;114555;-82
2023/04/13 10:08:36;;;;;;;;;;;11.50;71.30;;;11.84;43.21;97716.75;4998814;27;113991;-84
2023/04/13 10:11:10;;;;;;;;;;;11.50;71.50;;;11.84;43.74;97719.53;4990645;28;124263;-84
2023/04/13 10:13:42;;;;;;;;;;;11.50;71.80;;;11.85;44.03;97731.44;5014260;27;124260;-84
2023/04/13 10:16:35;;;;;;;;;;;11.50;72.00;;;11.82;44.01;97723.78;4996817;28;115736;-82
2023/04/13 10:19:21;;;;;;;;;;;11.50;72.30;;;11.78;43.88;97707.09;5010134;28;113710;-85
2023/04/13 10:21:55;;;;;;;;;;;11.50;71.60;;;11.77;43.74;97718.50;5021535;27;122909;-84
2023/04/13 10:24:22;;;;;;;;;;;11.50;71.90;;;11.80;43.80;97717.81;5004113;28;124524;-86
2023/04/13 10:27:00;;;;;;;;;;;11.40;71.60;;;11.80;43.53;97710.31;4989494;28;115638;-84
2023/04/13 10:29:30;;;;;;;;;;;11.40;71.50;;;11.83;43.98;97712.38;5005658;28;115531;-85
2023/04/13 10:32:01;;;;;;;;;;;11.50;71.90;;;11.86;43.71;97719.22;5010043;27;123694;-84
2023/04/13 10:34:30;;;;;;;;;;;11.50;71.80;;;11.87;43.95;97718.06;4990086;28;123513;-84
2023/04/13 10:37:05;;;;;;;;;;;11.50;71.90;;;11.88;44.08;97705.84;5006049;28;113936;-85
2023/04/13 10:39:35;;;;;;;;;;;11.50;71.90;;;11.87;43.74;97709.75;4995533;28;113478;-84
2023/04/13 10:42:06;;;;;;;;;;;11.50;71.30;;;11.87;44.11;97713.31;5022695;27;123587;-84
2023/04/13 10:44:47;;;;;;;;;;;11.50;71.70;;;11.88;43.95;97705.84;5024041;27;124509;-85
2023/04/13 10:47:22;;;;;;;;;;;11.60;71.60;;;11.88;44.08;97703.88;4997592;28;114431;-85
2023/04/13 10:49:52;;;;;;;;;;;11.60;71.80;;;11.93;43.70;97709.19;4991793;28;113612;-84
2023/04/13 10:52:18;;;;;;;;;;;11.60;71.50;;;11.91;43.75;97711.47;5002898;28;126472;-83
2023/04/13 10:54:44;;;;;;;;;;;11.60;71.40;;;11.92;43.96;97713.09;5026373;27;124504;-84
2023/04/13 10:57:11;;;;;;;;;;;11.60;71.50;;;11.95;43.53;97717.13;4996178;28;114762;-85
2023/04/13 10:59:43;;;;;;;;;;;11.60;71.50;;;11.93;43.90;97714.72;5006327;28;113944;-83
2023/04/13 11:02:11;;;;;;;;;;;11.60;71.50;;;11.97;43.62;97708.47;4994184;28;123784;-85
2023/04/13 11:04:42;;;;;;;;;;;11.60;71.40;;;12.00;43.61;97710.53;4997498;28;124803;-83
2023/04/13 11:07:32;;;;;;;;;;;11.70;71.30;;;12.00;43.82;97710.53;5002475;28;114674;-84
2023/04/13 11:09:58;;;;;;;;;;;11.70;71.20;;;12.01;43.92;97714.91;5007173;28;115432;-84
2023/04/13 11:12:34;;;;;;;;;;;11.70;71.30;;;12.06;43.73;97706.38;4998866;28;124245;-87
2023/04/13 11:15:00;;;;;;;;;;;11.70;71.20;;;12.11;43.61;97719.97;5023381;27;124032;-87
2023/04/13 11:17:29;;;;;;;;;;;11.80;71.10;;;12.15;43.08;97709.84;4996035;28;115179;-86
2023/04/13 11:19:56;;;;;;;;;;;11.80;70.80;;;12.15;43.19;97715.38;4998773;28;114718;-84